createdAt,value
2019-04-28T00:02:06.467Z,10.10
2019-04-28T00:04:35.189Z,10.00
2019-04-28T00:07:13.664Z,9.90
2019-04-28T00:09:48.515Z,10.00
2019-04-28T00:12:23.289Z,10.00
2019-04-28T00:14:52.359Z,9.90
2019-04-28T00:17:21.396Z,10.00
2019-04-28T00:19:54.713Z,10.00
2019-04-28T00:22:46.279Z,10.00
2019-04-28T00:25:26.631Z,10.10
2019-04-28T00:27:56.881Z,10.10
2019-04-28T00:30:26.684Z,10.20
2019-04-28T00:33:01.769Z,10.10
2019-04-28T00:35:32.193Z,10.10
2019-04-28T00:38:03.551Z,10.10
2019-04-28T00:40:34.929Z,10.20
2019-04-28T00:43:05.404Z,10.20
2019-04-28T00:46:07.333Z,10.40
2019-04-28T00:48:30.965Z,10.50
2019-04-28T00:51:01.684Z,10.40
2019-04-28T00:53:33.082Z,10.30
2019-04-28T00:56:02.182Z,10.20
2019-04-28T00:58:34.478Z,10.10
2019-04-28T01:01:11.355Z,10.20
2019-04-28T01:03:42.021Z,10.20
2019-04-28T01:06:14.062Z,10.10
2019-04-28T01:08:48.850Z,10.00
2019-04-28T01:11:25.727Z,10.00
2019-04-28T01:13:57.046Z,9.90
2019-04-28T01:16:34.644Z,9.90
2019-04-28T01:19:11.688Z,9.80
2019-04-28T01:22:00.290Z,9.80
2019-04-28T01:24:29.768Z,9.80
2019-04-28T01:27:01.627Z,9.70
2019-04-28T01:29:31.355Z,9.70
2019-04-28T01:32:17.717Z,9.70
2019-04-28T01:34:49.819Z,9.70
2019-04-28T01:38:26.114Z,9.50
2019-04-28T01:40:07.330Z,9.50
2019-04-28T01:42:36.773Z,9.60
2019-04-28T01:45:10.461Z,9.60
2019-04-28T01:48:02.193Z,9.50
2019-04-28T01:50:37.198Z,9.50
2019-04-28T01:53:25.985Z,9.70
2019-04-28T01:56:03.251Z,9.70
2019-04-28T01:58:35.715Z,9.70
2019-04-28T02:01:08.203Z,9.80
2019-04-28T02:03:43.075Z,9.90
2019-04-28T02:06:16.527Z,9.80
2019-04-28T02:08:54.933Z,9.80
2019-04-28T02:11:52.649Z,9.80
2019-04-28T02:14:40.985Z,9.70
2019-04-28T02:17:10.523Z,9.70
2019-04-28T02:19:42.588Z,9.70
2019-04-28T02:22:31.665Z,9.90
2019-04-28T02:25:03.097Z,9.80
2019-04-28T02:27:57.065Z,9.70
2019-04-28T02:30:45.333Z,9.60
2019-04-28T02:33:05.752Z,9.80
2019-04-28T02:35:37.392Z,9.70
2019-04-28T02:38:44.161Z,9.70
2019-04-28T02:41:27.098Z,9.50
2019-04-28T02:44:04.574Z,9.60
2019-04-28T02:46:40.913Z,9.70
2019-04-28T02:52:47.446Z,10.10
2019-04-28T02:55:21.360Z,10.00
2019-04-28T03:33:04.937Z,8.00
2019-04-28T03:35:32.538Z,8.00
2019-04-28T03:38:03.493Z,8.10
2019-04-28T03:40:37.803Z,8.20
2019-04-28T03:43:16.189Z,8.30
2019-04-28T03:46:03.569Z,8.40
2019-04-28T03:49:16.865Z,8.20
2019-04-28T03:51:51.712Z,8.30
2019-04-28T03:54:31.328Z,8.20
2019-04-28T03:57:21.522Z,8.30
2019-04-28T04:00:12.013Z,8.40
2019-04-28T04:06:01.164Z,8.70
2019-04-28T04:08:50.685Z,8.60
2019-04-28T04:11:22.361Z,8.70
2019-04-28T04:14:08.165Z,8.70
2019-04-28T04:16:43.315Z,8.60
2019-04-28T04:19:20.178Z,8.60
2019-04-28T04:21:50.406Z,8.40
2019-04-28T04:24:23.850Z,8.10
2019-04-28T04:27:02.349Z,8.10
2019-04-28T04:29:36.683Z,8.10
2019-04-28T04:32:14.759Z,8.20
2019-04-28T04:34:36.926Z,8.30
2019-04-28T04:37:12.753Z,8.30
2019-04-28T04:39:47.749Z,8.30
2019-04-28T04:42:20.502Z,8.40
2019-04-28T04:44:52.578Z,8.40
2019-04-28T04:47:24.249Z,8.40
2019-04-28T04:50:21.698Z,8.50
2019-04-28T04:53:06.960Z,8.60
2019-04-28T04:55:43.497Z,8.60
2019-04-28T04:58:15.449Z,8.70
2019-04-28T05:00:55.765Z,8.60
2019-04-28T05:03:31.191Z,8.60
2019-04-28T05:06:10.033Z,8.60
2019-04-28T05:09:10.937Z,8.60
2019-04-28T05:11:45.092Z,8.60
2019-04-28T05:14:14.627Z,8.60
2019-04-28T05:16:55.925Z,8.60
2019-04-28T05:19:30.048Z,8.70
2019-04-28T05:22:00.018Z,8.80
2019-04-28T05:24:46.229Z,8.80
2019-04-28T05:27:25.655Z,8.80
2019-04-28T05:30:43.606Z,8.80
2019-04-28T05:33:16.603Z,8.70
2019-04-28T05:36:24.496Z,8.60
2019-04-28T05:39:13.527Z,8.60
2019-04-28T05:41:50.568Z,8.60
2019-04-28T05:44:29.926Z,8.60
2019-04-28T05:47:13.228Z,8.80
2019-04-28T05:49:46.899Z,8.80
2019-04-28T05:52:33.950Z,9.10
2019-04-28T05:56:26.641Z,9.30
2019-04-28T06:31:17.073Z,8.50
2019-04-28T06:33:57.067Z,8.60
2019-04-28T06:36:58.048Z,8.60
2019-04-28T06:39:28.891Z,8.60
2019-04-28T06:42:01.461Z,8.80
2019-04-28T06:44:38.891Z,8.90
2019-04-28T06:47:08.819Z,9.00
2019-04-28T06:50:02.581Z,9.00
2019-04-28T06:52:33.005Z,8.80
2019-04-28T06:58:58.438Z,8.90
2019-04-28T07:01:49.148Z,9.10
2019-04-28T07:04:32.767Z,9.30
2019-04-28T07:07:26.828Z,9.10
2019-04-28T07:10:13.697Z,9.00
2019-04-28T07:12:53.822Z,8.90
2019-04-28T07:15:22.766Z,9.20
2019-04-28T07:17:55.081Z,9.40
2019-04-28T07:20:30.717Z,9.40
2019-04-28T07:23:33.910Z,9.50
2019-04-28T07:26:26.828Z,9.40
2019-04-28T07:29:09.044Z,9.40
2019-04-28T07:31:45.280Z,9.90
2019-04-28T07:35:12.236Z,10.40
2019-04-28T07:37:57.350Z,10.50
2019-04-28T07:41:01.072Z,10.30
2019-04-28T07:43:56.471Z,10.40
2019-04-28T07:50:00.906Z,10.50
2019-04-28T07:53:20.521Z,10.50
2019-04-28T07:55:57.368Z,10.80
2019-04-28T07:59:23.188Z,10.50
2019-04-28T08:02:03.742Z,10.50
2019-04-28T08:04:52.327Z,11.10
2019-04-28T08:07:22.272Z,11.40
2019-04-28T08:09:57.612Z,11.50
2019-04-28T08:12:36.013Z,11.60
2019-04-28T08:15:10.117Z,11.50
2019-04-28T08:18:19.093Z,12.00
2019-04-28T08:20:52.109Z,12.00
2019-04-28T08:23:46.274Z,12.40
2019-04-28T08:26:05.194Z,12.70
2019-04-28T08:28:40.147Z,12.70
2019-04-28T08:31:11.888Z,12.40
2019-04-28T08:34:03.040Z,12.70
2019-04-28T13:49:06.988Z,17.30
2019-04-28T14:00:35.401Z,14.60
2019-04-28T14:03:35.190Z,15.60
2019-04-28T14:09:34.648Z,17.20
2019-04-28T14:12:20.382Z,17.80
2019-04-28T14:21:40.400Z,18.60
2019-04-28T14:27:23.126Z,18.00
2019-04-28T14:30:26.320Z,17.40
2019-04-28T14:36:21.254Z,16.40
2019-04-28T14:39:07.767Z,16.40
2019-04-28T17:03:35.375Z,13.20
2019-04-28T17:06:14.558Z,13.60
2019-04-28T17:09:01.779Z,13.20
2019-04-28T17:11:44.907Z,13.40
2019-04-28T17:14:34.981Z,13.50
2019-04-28T17:18:15.697Z,13.90
2019-04-28T17:20:50.352Z,14.20
2019-04-28T17:23:31.077Z,13.90
2019-04-28T17:29:21.161Z,13.60
2019-04-28T17:32:03.408Z,13.40
2019-04-28T17:34:45.946Z,13.30
2019-04-28T18:38:05.547Z,11.20
2019-04-28T18:40:54.710Z,11.30
2019-04-28T18:43:46.070Z,11.30
2019-04-28T18:46:34.516Z,11.20
2019-04-28T18:49:04.928Z,11.10
2019-04-28T18:51:33.703Z,11.00
2019-04-28T18:54:08.660Z,11.00
2019-04-28T18:57:16.161Z,11.00
2019-04-28T19:00:20.080Z,10.90
2019-04-28T19:02:47.426Z,10.70
2019-04-28T19:05:23.955Z,10.50
2019-04-28T19:08:04.503Z,10.50
2019-04-28T19:10:40.498Z,10.50
2019-04-28T19:13:28.538Z,10.30
2019-04-28T19:16:07.512Z,10.30
2019-04-28T19:19:14.387Z,10.40
2019-04-28T19:21:55.971Z,10.40
2019-04-28T19:24:31.594Z,10.40
2019-04-28T19:27:01.298Z,10.30
2019-04-28T19:29:31.627Z,10.20
2019-04-28T19:32:03.455Z,10.10
2019-04-28T19:34:35.737Z,9.90
2019-04-28T19:37:11.138Z,10.00
2019-04-28T19:39:40.935Z,10.30
2019-04-28T19:42:18.005Z,10.40
2019-04-28T19:44:52.348Z,10.60
2019-04-28T19:47:21.592Z,10.70
2019-04-28T19:49:53.531Z,10.80
2019-04-28T19:52:24.961Z,10.80
2019-04-28T19:55:09.019Z,10.70
2019-04-28T19:57:43.628Z,10.40
2019-04-28T20:00:22.997Z,9.90
2019-04-28T20:02:54.361Z,9.50
2019-04-28T20:05:45.092Z,9.50
2019-04-28T20:08:28.605Z,9.20
2019-04-28T20:11:04.378Z,8.90
2019-04-28T20:13:35.086Z,8.50
2019-04-28T20:16:18.258Z,8.30
2019-04-28T20:18:50.049Z,8.30
2019-04-28T20:21:33.964Z,8.50
2019-04-28T20:24:05.394Z,8.50
2019-04-28T20:26:42.711Z,8.50
2019-04-28T20:29:16.194Z,8.60
2019-04-28T20:31:49.355Z,8.70
2019-04-28T20:34:24.058Z,8.70
2019-04-28T20:37:05.455Z,8.70
2019-04-28T20:39:34.404Z,8.60
2019-04-28T20:42:24.206Z,8.60
2019-04-28T20:44:55.869Z,8.60
2019-04-28T20:47:24.929Z,8.60
2019-04-28T20:49:54.700Z,8.60
2019-04-28T20:52:27.294Z,8.50
2019-04-28T20:55:08.717Z,8.20
2019-04-28T20:57:43.725Z,8.10
2019-04-28T21:00:20.486Z,8.30
2019-04-28T21:02:58.280Z,8.20
2019-04-28T21:05:43.162Z,8.00
2019-04-28T21:08:32.194Z,8.10
2019-04-28T21:11:04.056Z,8.10
2019-04-28T21:13:33.167Z,8.10
2019-04-28T21:16:07.588Z,7.80
2019-04-28T21:18:37.573Z,7.90
2019-04-28T21:21:06.281Z,8.20
2019-04-28T21:23:35.695Z,8.20
2019-04-28T21:26:15.669Z,8.20
2019-04-28T21:28:49.780Z,8.10
2019-04-28T21:31:19.213Z,8.00
2019-04-28T21:33:54.724Z,7.40
2019-04-28T21:36:23.800Z,7.10
2019-04-28T21:38:52.402Z,7.00
2019-04-28T21:41:21.287Z,6.90
2019-04-28T21:43:57.594Z,6.90
2019-04-28T21:46:28.238Z,7.20
2019-04-28T21:48:58.572Z,7.10
2019-04-28T21:51:27.643Z,7.20
2019-04-28T21:53:56.846Z,6.90
2019-04-28T21:59:29.040Z,7.00
2019-04-28T22:01:57.723Z,7.10
2019-04-28T22:04:26.688Z,7.20
2019-04-28T22:07:03.158Z,7.30
2019-04-28T22:09:32.570Z,7.30
2019-04-28T22:12:01.433Z,7.40
2019-04-28T22:14:29.954Z,7.10
2019-04-28T22:16:59.740Z,7.10
2019-04-28T22:19:29.752Z,7.10
2019-04-28T22:22:01.569Z,7.10
2019-04-28T22:24:32.452Z,7.10
2019-04-28T22:27:01.254Z,7.10
2019-04-28T22:29:30.194Z,7.20
2019-04-28T22:31:59.045Z,7.20
2019-04-28T22:34:28.153Z,7.10
2019-04-28T22:36:57.549Z,6.90
2019-04-28T22:39:26.513Z,6.60
2019-04-28T22:42:01.068Z,6.20
2019-04-28T22:44:30.699Z,5.90
2019-04-28T22:47:05.292Z,5.70
2019-04-28T22:49:38.352Z,5.60
2019-04-28T22:52:13.444Z,5.80
2019-04-28T22:54:50.166Z,5.90
2019-04-28T22:57:23.369Z,6.10
2019-04-28T22:59:54.159Z,6.20
2019-04-28T23:02:24.590Z,6.30
2019-04-28T23:05:00.074Z,6.40
2019-04-28T23:07:54.696Z,6.20
2019-04-28T23:10:17.978Z,5.50
2019-04-28T23:13:14.899Z,5.30
2019-04-28T23:15:43.943Z,5.20
2019-04-28T23:18:16.100Z,5.40
2019-04-28T23:20:47.439Z,5.50
2019-04-28T23:23:18.778Z,5.50
2019-04-28T23:25:47.721Z,5.70
2019-04-28T23:28:24.450Z,5.70
2019-04-28T23:30:53.352Z,5.50
2019-04-28T23:33:26.031Z,5.30
2019-04-28T23:35:54.723Z,5.30
2019-04-28T23:38:23.687Z,5.60
2019-04-28T23:40:54.838Z,5.70
2019-04-28T23:43:23.501Z,5.70
2019-04-28T23:45:52.054Z,5.80
2019-04-28T23:48:20.698Z,5.90
2019-04-28T23:51:07.431Z,6.00
2019-04-28T23:53:54.381Z,5.90
2019-04-28T23:56:23.465Z,5.70
2019-04-28T23:58:52.214Z,5.20
